createdAt,value
2024-02-14T00:00:02.901Z,4.50
2024-02-14T00:02:37.507Z,4.20
2024-02-14T00:05:12.103Z,4.50
2024-02-14T00:07:44.863Z,4.50
2024-02-14T00:10:18.068Z,4.00
2024-02-14T00:12:50.876Z,4.70
2024-02-14T00:15:23.401Z,4.10
2024-02-14T00:17:58.816Z,4.60
2024-02-14T00:20:31.367Z,5.20
2024-02-14T00:23:03.897Z,5.40
2024-02-14T00:25:36.254Z,4.20
2024-02-14T00:28:09.825Z,4.70
2024-02-14T00:30:42.193Z,3.90
2024-02-14T00:33:14.839Z,3.90
2024-02-14T00:35:47.359Z,4.10
2024-02-14T00:38:20.424Z,3.80
2024-02-14T00:40:52.698Z,3.40
2024-02-14T00:43:25.018Z,3.90
2024-02-14T00:45:58.339Z,3.90
2024-02-14T00:48:30.734Z,4.00
2024-02-14T00:51:03.552Z,3.40
2024-02-14T00:53:36.387Z,3.50
2024-02-14T00:56:13.765Z,3.80
2024-02-14T00:58:46.477Z,3.50
2024-02-14T01:01:18.935Z,3.70
2024-02-14T01:03:51.902Z,3.60
2024-02-14T01:06:26.115Z,3.30
2024-02-14T01:08:58.969Z,4.00
2024-02-14T01:11:31.577Z,4.40
2024-02-14T01:14:04.202Z,4.20
2024-02-14T01:16:44.115Z,3.20
2024-02-14T01:19:16.641Z,3.50
2024-02-14T01:21:49.956Z,3.10
2024-02-14T01:24:23.539Z,3.50
2024-02-14T01:26:57.361Z,3.20
2024-02-14T01:29:29.800Z,3.40
2024-02-14T01:32:02.435Z,3.40
2024-02-14T01:34:35.069Z,3.50
2024-02-14T01:37:07.472Z,3.50
2024-02-14T01:39:39.812Z,3.60
2024-02-14T01:42:12.248Z,3.50
2024-02-14T01:44:45.039Z,3.70
2024-02-14T01:47:20.306Z,3.60
2024-02-14T01:49:52.759Z,3.70
2024-02-14T01:52:25.168Z,3.80
2024-02-14T01:54:58.255Z,3.60
2024-02-14T01:57:31.109Z,3.70
2024-02-14T02:00:09.906Z,3.70
2024-02-14T02:02:42.490Z,4.10
2024-02-14T02:05:14.959Z,3.90
2024-02-14T02:07:50.052Z,3.80
2024-02-14T02:10:26.851Z,4.20
2024-02-14T02:13:03.352Z,3.70
2024-02-14T02:15:35.801Z,4.50
2024-02-14T02:18:09.107Z,4.20
2024-02-14T02:20:44.209Z,4.10
2024-02-14T02:23:16.993Z,4.10
2024-02-14T02:25:49.536Z,4.20
2024-02-14T02:28:21.879Z,4.80
2024-02-14T02:30:57.435Z,4.10
2024-02-14T02:33:31.902Z,4.90
2024-02-14T02:36:04.700Z,4.30
2024-02-14T02:38:38.007Z,3.90
2024-02-14T02:41:10.514Z,4.40
2024-02-14T02:43:42.703Z,4.60
2024-02-14T02:46:15.696Z,4.60
2024-02-14T02:48:49.272Z,5.00
2024-02-14T02:51:21.821Z,4.80
2024-02-14T02:53:55.700Z,4.60
2024-02-14T02:56:29.173Z,4.90
2024-02-14T02:59:04.585Z,5.10
2024-02-14T03:01:41.551Z,4.80
2024-02-14T03:04:16.255Z,5.00
2024-02-14T03:06:48.768Z,4.90
2024-02-14T03:09:21.065Z,4.50
2024-02-14T03:11:53.790Z,4.20
2024-02-14T03:14:26.768Z,5.20
2024-02-14T03:17:01.358Z,5.50
2024-02-14T03:19:39.610Z,5.10
2024-02-14T03:22:12.528Z,5.40
2024-02-14T03:24:45.278Z,5.40
2024-02-14T03:27:18.725Z,5.10
2024-02-14T03:29:53.144Z,5.70
2024-02-14T03:32:25.545Z,6.20
2024-02-14T03:34:57.980Z,5.80
2024-02-14T03:37:30.593Z,6.30
2024-02-14T03:40:09.469Z,5.70
2024-02-14T03:42:41.839Z,6.10
2024-02-14T03:45:15.603Z,5.20
2024-02-14T03:47:47.955Z,5.10
2024-02-14T03:50:20.617Z,6.30
2024-02-14T03:52:52.915Z,5.50
2024-02-14T03:55:26.185Z,6.10
2024-02-14T03:57:58.730Z,6.00
2024-02-14T04:00:32.611Z,5.90
2024-02-14T04:03:08.562Z,6.10
2024-02-14T04:05:42.147Z,6.30
2024-02-14T04:08:14.592Z,6.90
2024-02-14T04:10:47.494Z,6.60
2024-02-14T04:13:20.375Z,6.40
2024-02-14T04:15:53.955Z,6.40
2024-02-14T04:18:27.036Z,5.50
2024-02-14T04:21:00.918Z,5.80
2024-02-14T04:23:34.589Z,6.20
2024-02-14T04:26:07.058Z,6.20
2024-02-14T04:28:41.855Z,6.30
2024-02-14T04:31:14.028Z,6.20
2024-02-14T04:33:51.014Z,5.70
2024-02-14T04:36:24.793Z,6.50
2024-02-14T04:38:58.234Z,6.40
2024-02-14T04:41:30.931Z,6.60
2024-02-14T04:44:03.390Z,6.70
2024-02-14T04:46:36.151Z,5.80
2024-02-14T04:49:08.731Z,6.30
2024-02-14T04:51:41.446Z,6.30
2024-02-14T04:54:15.036Z,5.70
2024-02-14T04:56:50.419Z,6.20
2024-02-14T04:59:24.769Z,6.40
2024-02-14T05:01:57.984Z,5.90
2024-02-14T05:04:31.134Z,6.50
2024-02-14T05:07:03.509Z,6.20
2024-02-14T05:09:36.017Z,5.90
2024-02-14T05:12:12.286Z,5.00
2024-02-14T05:14:44.977Z,5.20
2024-02-14T05:17:18.198Z,5.20
2024-02-14T05:19:50.870Z,5.60
2024-02-14T05:22:24.071Z,5.70
2024-02-14T05:24:56.375Z,5.80
2024-02-14T05:27:31.421Z,4.80
2024-02-14T05:30:06.918Z,5.30
2024-02-14T05:32:41.280Z,6.10
2024-02-14T05:35:14.215Z,5.70
2024-02-14T05:37:52.329Z,5.50
2024-02-14T05:40:25.769Z,5.60
2024-02-14T05:42:58.481Z,7.50
2024-02-14T05:45:30.834Z,5.70
2024-02-14T05:48:03.162Z,5.40
2024-02-14T05:50:36.588Z,5.60
2024-02-14T05:53:09.110Z,5.60
2024-02-14T05:55:41.424Z,5.60
2024-02-14T05:58:14.065Z,5.80
2024-02-14T06:00:46.628Z,5.50
2024-02-14T06:03:19.918Z,6.10
2024-02-14T06:05:52.384Z,5.20
2024-02-14T06:08:25.457Z,5.70
2024-02-14T06:10:57.947Z,6.80
2024-02-14T06:13:32.658Z,5.50
2024-02-14T06:16:06.715Z,6.00
2024-02-14T06:18:40.983Z,5.80
2024-02-14T06:21:13.605Z,6.20
2024-02-14T06:23:48.307Z,5.70
2024-02-14T06:26:20.764Z,5.50
2024-02-14T06:28:55.875Z,6.20
2024-02-14T06:31:28.986Z,6.10
2024-02-14T06:34:01.979Z,5.10
2024-02-14T06:36:34.913Z,5.20
2024-02-14T06:39:09.398Z,5.90
2024-02-14T06:41:42.786Z,5.40
2024-02-14T06:44:16.331Z,5.50
2024-02-14T06:46:48.627Z,5.60
2024-02-14T06:49:21.458Z,5.70
2024-02-14T06:51:54.008Z,5.40
2024-02-14T06:54:26.272Z,5.80
2024-02-14T06:56:58.546Z,5.80
2024-02-14T06:59:31.227Z,5.10
2024-02-14T07:02:13.027Z,5.80
2024-02-14T07:04:46.541Z,5.30
2024-02-14T07:07:19.233Z,6.20
2024-02-14T07:09:54.901Z,5.40
2024-02-14T07:12:28.222Z,5.80
2024-02-14T07:15:00.683Z,5.00
2024-02-14T07:17:33.387Z,4.20
2024-02-14T07:20:07.231Z,5.00
2024-02-14T07:22:39.840Z,5.50
2024-02-14T07:25:12.905Z,4.80
2024-02-14T07:27:47.263Z,5.50
2024-02-14T07:30:20.234Z,5.50
2024-02-14T07:32:53.107Z,4.90
2024-02-14T07:35:27.121Z,5.60
2024-02-14T07:37:59.548Z,5.70
2024-02-14T07:40:33.336Z,5.30
2024-02-14T07:43:07.571Z,5.60
2024-02-14T07:45:39.854Z,5.40
2024-02-14T07:48:12.905Z,6.60
2024-02-14T07:50:45.872Z,7.00
2024-02-14T07:53:19.888Z,7.20
2024-02-14T07:55:53.346Z,6.70
2024-02-14T07:58:25.850Z,7.00
2024-02-14T08:00:58.273Z,7.60
2024-02-14T08:03:30.522Z,8.50
2024-02-14T08:06:03.210Z,7.20
2024-02-14T08:08:36.423Z,7.10
2024-02-14T08:11:09.166Z,7.40
2024-02-14T08:13:42.476Z,6.90
2024-02-14T08:16:14.795Z,6.60
2024-02-14T08:18:47.224Z,5.70
2024-02-14T08:21:20.443Z,5.80
2024-02-14T08:23:52.864Z,6.30
2024-02-14T08:26:25.630Z,6.10
2024-02-14T08:28:59.446Z,6.30
2024-02-14T08:31:34.005Z,7.20
2024-02-14T08:34:06.424Z,7.00
2024-02-14T08:36:42.116Z,7.20
2024-02-14T08:39:15.108Z,7.60
2024-02-14T08:41:48.453Z,6.70
2024-02-14T08:44:21.244Z,6.30
2024-02-14T08:46:55.526Z,7.70
2024-02-14T08:49:27.801Z,6.10
2024-02-14T08:52:00.100Z,7.30
2024-02-14T08:54:34.159Z,6.80
2024-02-14T08:57:07.033Z,6.80
2024-02-14T08:59:39.772Z,6.70
2024-02-14T09:02:12.105Z,6.10
2024-02-14T09:04:45.651Z,5.80
2024-02-14T09:07:18.567Z,6.20
2024-02-14T09:09:51.193Z,5.90
2024-02-14T09:12:23.986Z,6.10
2024-02-14T09:14:58.295Z,7.00
2024-02-14T09:17:31.795Z,5.80
2024-02-14T09:20:07.761Z,6.50
2024-02-14T09:22:42.487Z,6.90
2024-02-14T09:25:15.588Z,5.80
2024-02-14T09:27:49.013Z,6.30
2024-02-14T09:30:28.116Z,6.90
2024-02-14T09:33:08.173Z,6.70
2024-02-14T09:35:45.919Z,6.00
2024-02-14T09:38:18.702Z,6.10
2024-02-14T09:40:51.806Z,6.00
2024-02-14T09:43:30.806Z,6.00
2024-02-14T09:46:04.412Z,6.20
2024-02-14T09:48:41.129Z,5.50
2024-02-14T09:51:15.494Z,5.50
2024-02-14T09:53:49.337Z,6.20
2024-02-14T09:56:24.785Z,6.10
2024-02-14T09:58:58.306Z,6.40
2024-02-14T10:01:30.991Z,6.40
2024-02-14T10:04:04.473Z,5.90
2024-02-14T10:06:39.178Z,6.00
2024-02-14T10:09:12.238Z,5.90
2024-02-14T10:11:46.274Z,6.30
2024-02-14T10:14:20.439Z,6.00
2024-02-14T10:16:52.797Z,5.50
2024-02-14T10:19:25.870Z,5.80
2024-02-14T10:22:04.143Z,5.80
2024-02-14T10:24:36.651Z,5.90
2024-02-14T10:27:13.769Z,5.60
2024-02-14T10:29:46.121Z,5.50
2024-02-14T10:32:20.151Z,5.70
2024-02-14T10:34:52.609Z,5.40
2024-02-14T10:37:27.421Z,5.30
2024-02-14T10:40:03.097Z,5.10
2024-02-14T10:42:36.111Z,6.60
2024-02-14T10:45:10.538Z,6.00
2024-02-14T10:47:46.377Z,5.40
2024-02-14T10:50:20.627Z,5.80
2024-02-14T10:52:55.699Z,5.80
2024-02-14T10:55:35.579Z,5.70
2024-02-14T10:58:09.333Z,5.40
2024-02-14T11:00:43.640Z,5.70
2024-02-14T11:03:17.108Z,5.10
2024-02-14T11:05:51.311Z,5.20
2024-02-14T11:08:26.188Z,6.00
2024-02-14T11:11:00.949Z,6.00
2024-02-14T11:13:34.877Z,5.50
2024-02-14T11:16:12.315Z,5.40
2024-02-14T11:18:44.884Z,5.10
2024-02-14T11:21:21.608Z,5.70
2024-02-14T11:24:09.796Z,5.10
2024-02-14T11:26:48.445Z,4.70
2024-02-14T11:29:23.848Z,4.80
2024-02-14T11:32:04.354Z,4.90
2024-02-14T11:34:38.571Z,5.40
2024-02-14T11:37:16.394Z,5.50
2024-02-14T11:39:50.894Z,5.40
2024-02-14T11:42:27.083Z,6.30
2024-02-14T11:45:00.209Z,5.10
2024-02-14T11:47:33.288Z,4.70
2024-02-14T11:50:07.476Z,4.40
2024-02-14T11:52:39.786Z,4.60
2024-02-14T11:55:14.725Z,4.70
2024-02-14T11:57:49.396Z,4.20
2024-02-14T12:00:22.868Z,4.20
2024-02-14T12:02:56.281Z,4.10
2024-02-14T12:05:28.975Z,5.00
2024-02-14T12:08:02.149Z,5.20
2024-02-14T12:10:37.642Z,4.10
2024-02-14T12:13:13.212Z,3.80
2024-02-14T12:15:47.922Z,4.30
2024-02-14T12:18:21.923Z,3.90
2024-02-14T12:21:07.140Z,4.90
2024-02-14T12:23:40.248Z,4.30
2024-02-14T12:26:18.618Z,4.10
2024-02-14T12:28:54.672Z,4.50
2024-02-14T12:31:27.735Z,4.90
2024-02-14T12:34:03.864Z,4.50
2024-02-14T12:36:37.183Z,4.50
2024-02-14T12:39:14.056Z,4.90
2024-02-14T12:41:46.721Z,4.40
2024-02-14T12:44:19.882Z,4.60
2024-02-14T12:46:52.516Z,4.70
2024-02-14T12:49:27.426Z,5.50
2024-02-14T12:51:59.894Z,5.00
2024-02-14T12:54:33.757Z,4.20
2024-02-14T12:57:06.958Z,4.30
2024-02-14T12:59:39.272Z,5.20
2024-02-14T13:02:12.287Z,4.90
2024-02-14T13:04:45.325Z,4.80
2024-02-14T13:07:18.648Z,5.70
2024-02-14T13:09:52.482Z,4.70
2024-02-14T13:12:25.501Z,4.30
2024-02-14T13:14:57.926Z,4.80
2024-02-14T13:17:30.883Z,4.30
2024-02-14T13:20:05.034Z,4.50
2024-02-14T13:22:38.035Z,5.30
2024-02-14T13:25:12.144Z,4.40
2024-02-14T13:27:45.990Z,4.90
2024-02-14T13:30:20.235Z,4.50
2024-02-14T13:32:53.251Z,4.70
2024-02-14T13:35:25.985Z,5.40
2024-02-14T13:37:59.347Z,4.80
2024-02-14T13:40:31.773Z,4.80
2024-02-14T13:43:04.475Z,5.00
2024-02-14T13:45:45.235Z,5.70
2024-02-14T13:48:18.882Z,4.70
2024-02-14T13:50:52.747Z,5.40
2024-02-14T13:53:25.259Z,5.20
2024-02-14T13:55:57.956Z,5.60
2024-02-14T13:58:30.540Z,5.60
2024-02-14T14:01:03.077Z,4.90
2024-02-14T14:03:37.936Z,5.20
2024-02-14T14:06:11.341Z,5.50
2024-02-14T14:08:44.274Z,5.70
2024-02-14T14:11:16.795Z,5.10
2024-02-14T14:13:49.080Z,5.50
2024-02-14T14:16:23.078Z,4.80
2024-02-14T14:18:55.629Z,5.10
2024-02-14T14:21:28.100Z,5.10
2024-02-14T14:24:00.442Z,4.90
2024-02-14T14:26:33.108Z,4.50
2024-02-14T14:29:06.000Z,4.70
2024-02-14T14:31:38.400Z,4.50
2024-02-14T14:34:11.094Z,4.30
2024-02-14T14:36:43.454Z,5.30
2024-02-14T14:39:15.804Z,4.90
2024-02-14T14:41:48.160Z,5.60
2024-02-14T14:44:20.784Z,5.60
2024-02-14T14:46:53.123Z,4.90
2024-02-14T14:49:25.639Z,5.00
2024-02-14T14:51:58.803Z,5.70
2024-02-14T14:54:31.859Z,5.70
2024-02-14T14:57:10.961Z,5.90
2024-02-14T14:59:44.666Z,5.50
2024-02-14T15:02:17.193Z,5.20
2024-02-14T15:04:51.199Z,5.80
2024-02-14T15:07:23.720Z,5.80
2024-02-14T15:09:56.065Z,6.20
2024-02-14T15:12:28.323Z,5.40
2024-02-14T15:15:00.923Z,6.50
2024-02-14T15:17:33.319Z,5.70
2024-02-14T15:20:06.289Z,6.60
2024-02-14T15:22:38.758Z,6.90
2024-02-14T15:25:12.136Z,6.00
2024-02-14T15:27:55.713Z,6.50
2024-02-14T15:30:46.511Z,7.00
2024-02-14T15:33:25.621Z,7.80
2024-02-14T15:35:59.251Z,7.50
2024-02-14T15:38:31.922Z,7.10
2024-02-14T15:41:05.770Z,7.30
2024-02-14T15:43:38.315Z,7.80
2024-02-14T15:46:10.652Z,7.40
2024-02-14T15:48:43.568Z,7.70
2024-02-14T15:51:19.051Z,7.30
2024-02-14T15:53:51.581Z,6.90
2024-02-14T15:56:24.893Z,5.70
2024-02-14T15:58:58.766Z,7.60
2024-02-14T16:01:30.990Z,7.30
2024-02-14T16:04:03.294Z,7.40
2024-02-14T16:06:36.457Z,7.90
2024-02-14T16:09:10.348Z,7.80
2024-02-14T16:11:43.804Z,7.40
2024-02-14T16:14:18.208Z,7.80
2024-02-14T16:16:51.039Z,8.00
2024-02-14T16:19:23.304Z,8.10
2024-02-14T16:22:02.383Z,8.50
2024-02-14T16:24:42.329Z,8.60
2024-02-14T16:27:15.117Z,8.50
2024-02-14T16:29:47.884Z,10.50
2024-02-14T16:32:20.918Z,8.50
2024-02-14T16:34:53.219Z,8.60
2024-02-14T16:37:25.504Z,8.80
2024-02-14T16:39:58.433Z,9.10
2024-02-14T16:42:30.927Z,10.00
2024-02-14T16:45:05.531Z,10.10
2024-02-14T16:47:38.653Z,10.70
2024-02-14T16:50:11.880Z,11.00
2024-02-14T16:52:44.263Z,10.40
2024-02-14T16:55:16.533Z,11.10
2024-02-14T16:57:48.846Z,9.60
2024-02-14T17:00:22.742Z,10.10
2024-02-14T17:02:55.249Z,11.50
2024-02-14T17:05:28.019Z,11.00
2024-02-14T17:08:00.654Z,11.60
2024-02-14T17:10:33.183Z,12.10
2024-02-14T17:13:05.673Z,12.00
2024-02-14T17:15:38.202Z,11.80
2024-02-14T17:18:10.994Z,11.20
2024-02-14T17:20:44.293Z,12.20
2024-02-14T17:23:17.015Z,11.10
2024-02-14T17:25:50.504Z,11.50
2024-02-14T17:28:22.917Z,10.90
2024-02-14T17:30:55.198Z,11.70
2024-02-14T17:33:27.791Z,9.50
2024-02-14T17:36:00.198Z,9.90
2024-02-14T17:38:33.072Z,10.30
2024-02-14T17:41:05.714Z,9.60
2024-02-14T17:43:38.307Z,9.90
2024-02-14T17:46:11.783Z,9.40
2024-02-14T17:48:44.315Z,11.30
2024-02-14T17:51:17.357Z,9.60
2024-02-14T17:53:50.814Z,8.70
2024-02-14T17:56:26.276Z,8.30
2024-02-14T17:58:58.780Z,8.00
2024-02-14T18:01:31.094Z,9.00
2024-02-14T18:04:06.030Z,8.10
2024-02-14T18:06:40.162Z,9.00
2024-02-14T18:09:13.026Z,9.20
2024-02-14T18:11:45.922Z,7.40
2024-02-14T18:14:18.678Z,7.80
2024-02-14T18:16:52.438Z,8.30
2024-02-14T18:19:24.889Z,8.50
2024-02-14T18:21:57.785Z,8.70
2024-02-14T18:24:30.053Z,7.70
2024-02-14T18:27:02.598Z,7.90
2024-02-14T18:29:35.279Z,8.70
2024-02-14T18:32:09.605Z,8.80
2024-02-14T18:34:42.258Z,9.00
2024-02-14T18:37:14.787Z,9.20
2024-02-14T18:39:47.140Z,8.70
2024-02-14T18:42:19.476Z,8.60
2024-02-14T18:44:51.888Z,9.80
2024-02-14T18:47:24.880Z,9.50
2024-02-14T18:49:57.265Z,9.70
2024-02-14T18:52:29.563Z,9.10
2024-02-14T18:55:02.034Z,10.00
2024-02-14T18:57:34.570Z,9.20
2024-02-14T19:00:11.452Z,10.50
2024-02-14T19:02:44.357Z,10.30
2024-02-14T19:05:16.921Z,10.00
2024-02-14T19:07:49.280Z,10.30
2024-02-14T19:10:22.114Z,10.00
2024-02-14T19:12:54.533Z,10.00
2024-02-14T19:15:26.892Z,10.00
2024-02-14T19:17:59.266Z,10.20
2024-02-14T19:20:32.126Z,10.50
2024-02-14T19:23:08.339Z,10.30
2024-02-14T19:25:40.747Z,10.10
2024-02-14T19:28:13.468Z,10.00
2024-02-14T19:30:45.982Z,9.00
2024-02-14T19:33:19.237Z,8.90
2024-02-14T19:35:54.840Z,9.30
2024-02-14T19:38:29.370Z,9.50
2024-02-14T19:41:03.951Z,8.50
2024-02-14T19:43:39.909Z,7.80
2024-02-14T19:46:13.441Z,8.30
2024-02-14T19:48:46.217Z,9.00
2024-02-14T19:51:20.351Z,8.30
2024-02-14T19:53:52.926Z,7.80
2024-02-14T19:56:25.716Z,9.00
2024-02-14T19:58:58.001Z,8.20
2024-02-14T20:01:30.188Z,7.50
2024-02-14T20:04:02.937Z,7.80
2024-02-14T20:06:35.506Z,8.90
2024-02-14T20:09:08.716Z,8.80
2024-02-14T20:11:41.206Z,8.80
2024-02-14T20:14:13.675Z,9.70
2024-02-14T20:16:47.881Z,9.90
2024-02-14T20:19:20.646Z,9.30
2024-02-14T20:21:53.177Z,9.70
2024-02-14T20:24:26.361Z,10.90
2024-02-14T20:26:58.825Z,10.50
2024-02-14T20:29:31.251Z,10.00
2024-02-14T20:32:04.024Z,10.10
2024-02-14T20:34:36.551Z,10.10
2024-02-14T20:37:09.787Z,10.50
2024-02-14T20:39:42.124Z,11.70
2024-02-14T20:42:16.128Z,12.00
2024-02-14T20:44:48.834Z,11.40
2024-02-14T20:47:21.179Z,10.60
2024-02-14T20:49:53.847Z,11.80
2024-02-14T20:52:26.440Z,9.80
2024-02-14T20:54:59.718Z,8.20
2024-02-14T20:57:32.070Z,9.20
2024-02-14T21:00:10.080Z,8.90
2024-02-14T21:05:15.062Z,8.80
2024-02-14T21:07:47.609Z,9.10
2024-02-14T21:10:21.147Z,8.70
2024-02-14T21:12:53.907Z,8.10
2024-02-14T21:15:26.809Z,8.50
2024-02-14T21:17:59.513Z,7.90
2024-02-14T21:20:32.300Z,8.10
2024-02-14T21:23:04.781Z,8.40
2024-02-14T21:25:37.789Z,9.10
2024-02-14T21:28:10.899Z,9.60
2024-02-14T21:30:43.181Z,8.80
2024-02-14T21:33:15.669Z,8.70
2024-02-14T21:35:50.684Z,9.30
2024-02-14T21:38:23.195Z,8.80
2024-02-14T21:40:55.502Z,9.30
2024-02-14T21:43:27.928Z,9.10
2024-02-14T21:46:00.254Z,9.00
2024-02-14T21:48:32.943Z,8.60
2024-02-14T21:51:10.691Z,8.30
2024-02-14T21:53:43.292Z,8.30
2024-02-14T21:56:16.817Z,9.50
2024-02-14T21:58:49.330Z,9.90
2024-02-14T22:01:21.857Z,9.60
2024-02-14T22:03:54.437Z,8.60
2024-02-14T22:06:27.059Z,9.00
2024-02-14T22:08:59.724Z,8.80
2024-02-14T22:11:32.400Z,8.50
2024-02-14T22:14:05.291Z,7.30
2024-02-14T22:16:38.685Z,8.20
2024-02-14T22:19:14.052Z,7.10
2024-02-14T22:21:47.024Z,7.70
2024-02-14T22:24:19.526Z,7.30
2024-02-14T22:26:52.143Z,7.70
2024-02-14T22:29:24.656Z,6.30
2024-02-14T22:31:57.085Z,7.40
2024-02-14T22:34:29.565Z,7.80
2024-02-14T22:37:05.140Z,6.60
2024-02-14T22:39:37.612Z,6.30
2024-02-14T22:42:10.510Z,7.60
2024-02-14T22:44:43.087Z,6.80
2024-02-14T22:47:15.756Z,7.30
2024-02-14T22:49:48.394Z,7.30
2024-02-14T22:52:23.224Z,6.90
2024-02-14T22:54:55.577Z,6.90
2024-02-14T22:57:28.269Z,7.10
2024-02-14T23:00:00.902Z,6.70
2024-02-14T23:02:34.158Z,6.80
2024-02-14T23:05:08.422Z,6.80
2024-02-14T23:07:41.072Z,7.10
2024-02-14T23:10:13.888Z,6.80
2024-02-14T23:12:46.642Z,6.20
2024-02-14T23:15:19.714Z,6.70
2024-02-14T23:17:52.251Z,5.20
2024-02-14T23:20:24.669Z,6.80
2024-02-14T23:22:57.588Z,6.70
2024-02-14T23:25:33.638Z,7.10
2024-02-14T23:28:06.227Z,6.40
2024-02-14T23:30:41.041Z,6.40
2024-02-14T23:33:14.411Z,6.90
2024-02-14T23:35:47.194Z,6.60
2024-02-14T23:38:20.672Z,6.70
2024-02-14T23:40:53.236Z,7.40
2024-02-14T23:43:25.709Z,6.60
2024-02-14T23:45:58.063Z,6.90
2024-02-14T23:48:30.528Z,7.30
2024-02-14T23:51:03.714Z,6.80
2024-02-14T23:53:36.095Z,7.20
2024-02-14T23:56:09.323Z,7.00
2024-02-14T23:58:41.692Z,7.60
